Time;durP1;ratioP1;P1;durP2;ratioP2;P2;SDS_P1;SDS_P2;PMS_P1;PMS_P2;Temp;Humidity;BMP_temperature;BMP_pressure;BME280_temperature;BME280_humidity;BME280_pressure;Samples;Min_cycle;Max_cycle;Signal;HPM_P1;HPM_P2
2023/05/17 00:02:09;;;;;;;3.97;1.60;;;12.60;99.90;;;;;;5051837;28;20077;-68
2023/05/17 00:04:34;;;;;;;4.80;1.83;;;12.60;99.90;;;;;;5051397;28;20055;-68
2023/05/17 00:07:00;;;;;;;3.92;1.77;;;12.50;99.90;;;;;;5066834;28;20029;-67
2023/05/17 00:09:26;;;;;;;5.53;1.70;;;12.50;99.90;;;;;;5051442;28;20041;-68
2023/05/17 00:11:52;;;;;;;5.13;1.60;;;12.60;99.90;;;;;;5051552;28;20508;-68
2023/05/17 00:14:18;;;;;;;5.03;1.70;;;12.70;99.90;;;;;;5051211;28;20510;-68
2023/05/17 00:16:43;;;;;;;4.78;1.55;;;12.70;99.90;;;;;;5051644;28;20037;-68
2023/05/17 00:19:09;;;;;;;4.82;2.10;;;12.60;99.90;;;;;;5051299;28;20017;-68
2023/05/17 00:21:35;;;;;;;4.80;1.80;;;12.60;99.90;;;;;;5051034;28;20401;-68
2023/05/17 00:24:01;;;;;;;3.97;1.77;;;12.60;99.90;;;;;;5051320;28;20079;-67
2023/05/17 00:26:26;;;;;;;4.57;2.00;;;12.50;99.90;;;;;;5051518;28;20021;-68
2023/05/17 00:28:52;;;;;;;2.88;1.70;;;12.50;99.90;;;;;;5051223;28;20045;-68
2023/05/17 00:31:17;;;;;;;3.13;1.67;;;12.50;99.90;;;;;;5051171;28;20025;-68
2023/05/17 00:33:43;;;;;;;3.85;1.73;;;12.50;99.90;;;;;;5051558;28;20111;-68
2023/05/17 00:36:09;;;;;;;4.00;1.77;;;12.50;99.90;;;;;;5050854;28;20079;-68
2023/05/17 00:38:34;;;;;;;4.78;1.75;;;12.50;99.90;;;;;;5050657;28;20108;-68
2023/05/17 00:41:00;;;;;;;4.43;1.80;;;12.50;99.90;;;;;;5051100;28;20040;-68
2023/05/17 00:43:27;;;;;;;3.53;1.90;;;12.50;99.90;;;;;;5051139;28;20490;-68
2023/05/17 00:45:52;;;;;;;4.72;1.80;;;12.50;99.90;;;;;;5049995;28;20405;-68
2023/05/17 00:48:24;;;;;;;4.88;1.73;;;12.30;99.90;;;;;;5050909;28;20111;-69
2023/05/17 00:50:53;;;;;;;3.83;1.73;;;12.30;99.90;;;;;;5051430;28;20104;-68
2023/05/17 00:53:19;;;;;;;2.97;1.80;;;12.40;99.90;;;;;;5050992;28;20025;-68
2023/05/17 00:55:45;;;;;;;2.00;1.60;;;12.40;99.90;;;;;;5050833;28;20037;-68
2023/05/17 00:58:11;;;;;;;3.60;1.98;;;12.40;99.90;;;;;;5049650;28;20516;-68
2023/05/17 01:00:38;;;;;;;6.60;1.92;;;12.40;99.90;;;;;;5050720;28;20036;-67
2023/05/17 01:03:04;;;;;;;3.92;1.80;;;12.30;99.90;;;;;;5050892;28;20051;-68
2023/05/17 01:05:29;;;;;;;3.47;1.70;;;12.30;99.90;;;;;;5050875;28;20056;-68
2023/05/17 01:07:55;;;;;;;5.15;1.85;;;12.30;99.90;;;;;;5050802;28;20052;-68
2023/05/17 01:10:33;;;;;;;5.03;1.80;;;12.10;99.90;;;;;;5050753;28;20118;-67
2023/05/17 01:13:33;;;;;;;5.93;1.90;;;12.00;99.90;;;;;;5050716;28;20510;-67
2023/05/17 01:16:16;;;;;;;3.33;1.70;;;12.10;99.90;;;;;;5045716;28;20041;-67
2023/05/17 01:18:55;;;;;;;4.00;1.70;;;12.00;99.90;;;;;;5050831;28;20109;-67
2023/05/17 01:21:34;;;;;;;4.40;1.75;;;12.00;99.90;;;;;;5051090;28;20032;-67
2023/05/17 01:24:15;;;;;;;6.40;1.90;;;12.00;99.90;;;;;;5050754;28;20119;-67
2023/05/17 01:26:46;;;;;;;4.43;1.70;;;11.90;99.90;;;;;;5050707;28;20576;-67
2023/05/17 01:29:13;;;;;;;2.97;1.90;;;11.90;99.90;;;;;;5051013;28;20456;-68
2023/05/17 01:31:40;;;;;;;5.80;1.85;;;11.80;99.90;;;;;;5050615;28;20577;-68
2023/05/17 01:34:10;;;;;;;3.97;1.70;;;11.80;99.90;;;;;;5050303;28;20017;-68
2023/05/17 01:36:36;;;;;;;5.05;1.90;;;11.80;99.90;;;;;;5050525;28;20068;-67
2023/05/17 01:39:02;;;;;;;3.67;1.90;;;11.80;99.90;;;;;;5050537;28;20032;-66
2023/05/17 01:41:38;;;;;;;3.35;1.75;;;11.80;99.90;;;;;;5050591;28;20029;-67
2023/05/17 01:44:27;;;;;;;3.40;1.80;;;11.80;99.90;;;;;;5050522;28;20037;-68
2023/05/17 01:47:08;;;;;;;3.92;1.85;;;11.70;99.90;;;;;;5050109;28;20099;-68
2023/05/17 01:49:37;;;;;;;4.15;1.90;;;11.70;99.90;;;;;;5050762;28;20055;-67
2023/05/17 01:52:15;;;;;;;4.22;1.80;;;11.70;99.90;;;;;;5053757;28;20021;-67
2023/05/17 01:54:55;;;;;;;3.28;1.60;;;11.70;99.90;;;;;;5054265;28;20429;-67
2023/05/17 01:57:27;;;;;;;3.45;1.50;;;11.60;99.90;;;;;;5054001;28;20115;-68
2023/05/17 01:59:58;;;;;;;5.50;2.33;;;11.60;99.90;;;;;;5053883;28;20071;-68
2023/05/17 02:02:24;;;;;;;4.18;1.70;;;11.60;99.90;;;;;;5053509;28;20029;-67
2023/05/17 02:04:50;;;;;;;5.72;2.10;;;11.60;99.90;;;;;;5053841;28;20013;-67
2023/05/17 02:07:16;;;;;;;3.55;1.98;;;11.70;99.90;;;;;;5053527;28;20036;-67
2023/05/17 02:09:41;;;;;;;3.67;1.73;;;11.70;99.90;;;;;;5053956;28;20556;-67
2023/05/17 02:12:07;;;;;;;7.03;2.00;;;11.70;99.90;;;;;;5053603;28;20033;-67
2023/05/17 02:14:33;;;;;;;3.80;2.17;;;11.80;99.90;;;;;;5053553;28;20108;-68
2023/05/17 02:16:58;;;;;;;5.20;1.80;;;11.70;99.90;;;;;;5053352;28;20029;-68
2023/05/17 02:19:24;;;;;;;5.38;2.20;;;11.70;99.90;;;;;;5053591;28;20036;-67
2023/05/17 02:21:50;;;;;;;5.68;1.90;;;11.70;99.90;;;;;;5053541;28;20025;-66
2023/05/17 02:24:15;;;;;;;4.63;1.88;;;11.60;99.90;;;;;;5053753;28;20104;-68
2023/05/17 02:26:42;;;;;;;4.97;1.90;;;11.60;99.90;;;;;;5053408;28;20098;-67
2023/05/17 02:29:09;;;;;;;3.17;1.90;;;11.60;99.90;;;;;;5053339;28;20033;-67
2023/05/17 02:31:35;;;;;;;5.35;1.92;;;11.50;99.90;;;;;;5052981;28;20029;-67
2023/05/17 02:34:01;;;;;;;4.55;2.00;;;11.40;99.90;;;;;;5053314;28;20020;-67
2023/05/17 02:36:27;;;;;;;3.70;2.15;;;11.50;99.90;;;;;;5053085;28;20535;-67
2023/05/17 02:38:52;;;;;;;3.55;2.10;;;11.50;99.90;;;;;;5053552;28;20033;-68
2023/05/17 02:41:18;;;;;;;3.13;1.80;;;11.50;99.90;;;;;;5068500;28;20029;-66
2023/05/17 02:43:44;;;;;;;4.65;1.83;;;11.40;99.90;;;;;;5052954;28;20108;-68
2023/05/17 02:46:10;;;;;;;4.00;1.85;;;11.40;99.90;;;;;;5052808;28;20104;-67
2023/05/17 02:48:35;;;;;;;4.35;1.70;;;11.30;99.90;;;;;;5052955;28;20108;-67
2023/05/17 02:51:01;;;;;;;5.32;1.83;;;11.30;99.90;;;;;;5053521;28;20033;-67
2023/05/17 02:53:27;;;;;;;4.28;2.10;;;11.30;99.90;;;;;;5053098;28;20095;-68
2023/05/17 02:55:56;;;;;;;4.68;1.90;;;11.30;99.90;;;;;;5052755;28;20037;-67
2023/05/17 02:58:23;;;;;;;4.60;1.80;;;11.20;99.90;;;;;;5052669;28;20035;-67
2023/05/17 03:00:48;;;;;;;5.80;1.90;;;11.20;99.90;;;;;;5052207;28;20090;-66
2023/05/17 03:03:14;;;;;;;6.78;2.00;;;11.20;99.90;;;;;;5053045;28;20013;-67
2023/05/17 03:05:40;;;;;;;3.05;1.95;;;11.20;99.90;;;;;;5052713;28;20033;-67
2023/05/17 03:08:06;;;;;;;4.55;1.98;;;11.20;99.90;;;;;;5052531;28;20029;-68
2023/05/17 03:10:31;;;;;;;4.90;1.90;;;11.20;99.90;;;;;;5052568;28;20033;-66
2023/05/17 03:12:57;;;;;;;4.78;2.28;;;11.20;99.90;;;;;;5052401;28;20055;-68
2023/05/17 03:15:25;;;;;;;2.92;1.70;;;11.20;99.90;;;;;;5052045;28;20036;-67
2023/05/17 03:17:51;;;;;;;4.68;1.95;;;11.20;99.90;;;;;;5052488;28;20036;-67
2023/05/17 03:20:17;;;;;;;4.25;1.90;;;11.20;99.90;;;;;;5052532;28;20478;-67
2023/05/17 03:22:43;;;;;;;5.50;1.98;;;11.20;99.90;;;;;;5052441;28;20043;-67
2023/05/17 03:25:09;;;;;;;4.18;1.83;;;11.10;99.90;;;;;;5052365;28;20025;-67
2023/05/17 03:27:34;;;;;;;5.88;1.75;;;11.10;99.90;;;;;;5052175;28;20502;-67
2023/05/17 03:30:00;;;;;;;4.40;1.80;;;11.10;99.90;;;;;;5051975;28;20049;-67
2023/05/17 03:32:27;;;;;;;6.10;2.38;;;11.10;99.90;;;;;;5052223;28;20039;-68
2023/05/17 03:34:52;;;;;;;3.28;1.70;;;11.00;99.90;;;;;;5052124;28;20032;-67
2023/05/17 03:37:18;;;;;;;5.60;1.95;;;11.00;99.90;;;;;;5051999;28;20032;-67
2023/05/17 03:39:43;;;;;;;3.20;1.98;;;11.00;99.90;;;;;;5052064;28;20031;-67
2023/05/17 03:42:09;;;;;;;3.83;1.70;;;11.00;99.90;;;;;;5052243;28;20029;-67
2023/05/17 03:44:35;;;;;;;6.10;2.17;;;11.00;99.90;;;;;;5051378;28;20024;-67
2023/05/17 03:47:00;;;;;;;4.50;1.80;;;11.00;99.90;;;;;;5051820;28;20079;-67
2023/05/17 03:49:26;;;;;;;5.80;2.03;;;11.00;99.90;;;;;;5051742;28;20067;-68
2023/05/17 03:51:52;;;;;;;6.93;2.30;;;11.00;99.90;;;;;;5051914;28;20021;-67
2023/05/17 03:54:17;;;;;;;3.50;1.83;;;11.00;99.90;;;;;;5051806;28;20458;-67
2023/05/17 03:56:46;;;;;;;4.00;1.90;;;10.90;99.90;;;;;;5051604;28;20029;-67
2023/05/17 03:59:12;;;;;;;5.60;2.00;;;10.90;99.90;;;;;;5051797;28;20112;-67
2023/05/17 04:01:38;;;;;;;6.07;1.73;;;10.90;99.90;;;;;;5066994;28;20572;-67
2023/05/17 04:04:04;;;;;;;4.30;2.10;;;10.90;99.90;;;;;;5051672;28;20021;-67
2023/05/17 04:06:30;;;;;;;4.70;2.10;;;10.90;99.90;;;;;;5051460;28;20474;-67
2023/05/17 04:08:58;;;;;;;4.53;1.67;;;10.80;99.90;;;;;;5051376;28;20028;-68
2023/05/17 04:11:26;;;;;;;5.18;2.00;;;10.80;99.90;;;;;;5051562;28;20013;-67
2023/05/17 04:13:52;;;;;;;4.03;1.92;;;10.80;99.90;;;;;;5050562;28;20060;-67
2023/05/17 04:16:17;;;;;;;5.18;1.90;;;10.80;99.90;;;;;;5051387;28;20080;-67
2023/05/17 04:18:44;;;;;;;7.07;2.20;;;10.70;99.90;;;;;;5051517;28;20049;-67
2023/05/17 04:21:10;;;;;;;3.83;1.80;;;10.70;99.90;;;;;;5051356;28;20040;-67
2023/05/17 04:23:35;;;;;;;6.78;2.10;;;10.70;99.90;;;;;;5051464;28;20474;-67
2023/05/17 04:26:03;;;;;;;6.28;2.22;;;10.70;99.90;;;;;;5051037;28;20021;-67
2023/05/17 04:28:28;;;;;;;4.60;1.90;;;10.70;99.90;;;;;;5051381;28;20043;-68
2023/05/17 04:30:55;;;;;;;3.25;2.00;;;10.60;99.90;;;;;;5051172;28;20103;-67
2023/05/17 04:33:21;;;;;;;4.47;2.00;;;10.60;99.90;;;;;;5051300;28;20082;-67
2023/05/17 04:35:46;;;;;;;3.22;2.00;;;10.60;99.90;;;;;;5051012;28;20037;-67
2023/05/17 04:38:13;;;;;;;8.38;1.98;;;10.60;99.90;;;;;;5051363;28;20036;-67
2023/05/17 04:40:38;;;;;;;5.43;1.98;;;10.60;99.90;;;;;;5050878;28;20021;-67
2023/05/17 04:43:04;;;;;;;5.00;1.90;;;10.60;99.90;;;;;;5051281;28;20487;-67
2023/05/17 04:45:32;;;;;;;4.60;2.08;;;10.60;99.90;;;;;;5050909;28;20021;-67
2023/05/17 04:47:58;;;;;;;4.70;1.95;;;10.50;99.90;;;;;;5051231;28;20112;-67
2023/05/17 04:50:25;;;;;;;6.32;1.90;;;10.50;99.90;;;;;;5050947;28;20083;-67
2023/05/17 04:52:50;;;;;;;4.03;1.98;;;10.50;99.90;;;;;;5050948;28;20021;-67
2023/05/17 04:55:16;;;;;;;5.57;1.80;;;10.50;99.90;;;;;;5050489;28;20482;-67
2023/05/17 04:57:42;;;;;;;5.35;2.35;;;10.50;99.90;;;;;;5050907;28;20036;-67
2023/05/17 05:00:11;;;;;;;5.35;1.90;;;10.50;99.90;;;;;;5051008;28;20029;-66
2023/05/17 05:02:37;;;;;;;4.30;1.90;;;10.50;99.90;;;;;;5050942;28;20021;-67
2023/05/17 05:05:05;;;;;;;9.07;1.90;;;10.50;99.90;;;;;;5050908;28;20108;-67
2023/05/17 05:07:31;;;;;;;5.88;2.05;;;10.60;99.90;;;;;;5050693;28;20021;-68
2023/05/17 05:09:56;;;;;;;5.38;2.00;;;10.50;99.90;;;;;;5050484;28;20086;-67
2023/05/17 05:12:23;;;;;;;5.22;2.10;;;10.40;99.90;;;;;;5051015;28;20067;-68
2023/05/17 05:14:49;;;;;;;7.20;2.20;;;10.40;99.90;;;;;;5050757;28;20032;-67
2023/05/17 05:17:15;;;;;;;5.72;2.05;;;10.50;99.90;;;;;;5050785;28;20036;-67
2023/05/17 05:19:41;;;;;;;3.33;1.98;;;10.40;99.90;;;;;;5050741;28;20021;-67
2023/05/17 05:22:06;;;;;;;6.57;2.17;;;10.40;99.90;;;;;;5050903;28;20029;-66
2023/05/17 05:36:10;;;;;;;4.53;2.40;;;10.50;99.90;;;;;;5108913;27;20871;-69
2023/05/17 05:38:36;;;;;;;6.32;2.15;;;10.60;99.90;;;;;;5108814;28;20019;-70
2023/05/17 05:41:02;;;;;;;8.35;2.10;;;10.70;99.90;;;;;;5107937;28;20073;-70
2023/05/17 05:43:27;;;;;;;4.10;2.17;;;10.70;99.90;;;;;;5108459;28;20027;-69
2023/05/17 05:45:53;;;;;;;5.22;2.30;;;10.60;99.90;;;;;;5108725;28;20039;-68
2023/05/17 05:48:18;;;;;;;4.82;2.10;;;10.70;99.90;;;;;;5108570;28;20405;-69
2023/05/17 05:50:44;;;;;;;5.65;2.30;;;10.70;99.90;;;;;;5108598;28;20747;-68
2023/05/17 05:53:11;;;;;;;5.50;2.50;;;10.70;99.90;;;;;;5108480;28;20032;-68
2023/05/17 05:55:41;;;;;;;5.22;2.13;;;10.80;99.90;;;;;;5108176;28;20008;-68
2023/05/17 05:58:07;;;;;;;8.27;2.67;;;10.90;99.90;;;;;;5108197;28;20098;-68
2023/05/17 06:00:33;;;;;;;4.95;2.30;;;10.90;99.90;;;;;;5108622;28;20056;-67
2023/05/17 06:02:58;;;;;;;6.85;2.53;;;10.90;99.90;;;;;;5108817;28;20054;-67
2023/05/17 06:05:24;;;;;;;5.25;2.10;;;11.00;99.90;;;;;;5108511;28;20473;-68
2023/05/17 06:07:50;;;;;;;5.80;2.20;;;11.00;99.90;;;;;;5108366;28;20094;-68
2023/05/17 06:10:15;;;;;;;5.32;2.17;;;11.00;99.90;;;;;;5108278;28;20149;-67
2023/05/17 06:12:41;;;;;;;5.28;2.20;;;11.10;99.90;;;;;;5108340;28;20020;-68
2023/05/17 06:15:07;;;;;;;5.32;2.58;;;11.20;99.90;;;;;;5108182;28;20031;-67
2023/05/17 06:17:33;;;;;;;4.88;2.40;;;11.20;99.90;;;;;;5108150;28;20046;-67
2023/05/17 06:19:59;;;;;;;6.45;2.60;;;11.30;99.90;;;;;;5108179;28;20481;-67
2023/05/17 06:22:25;;;;;;;7.20;2.50;;;11.40;99.90;;;;;;5108048;28;20417;-68
2023/05/17 06:24:50;;;;;;;4.85;2.33;;;11.40;99.90;;;;;;5108026;28;20048;-68
2023/05/17 06:27:16;;;;;;;4.07;2.20;;;11.50;99.90;;;;;;5107611;28;20028;-67
2023/05/17 06:29:41;;;;;;;6.65;2.65;;;11.40;99.90;;;;;;5107701;28;20034;-68
2023/05/17 06:32:07;;;;;;;5.15;2.47;;;11.50;99.90;;;;;;5107954;28;20107;-68
2023/05/17 06:34:33;;;;;;;4.85;2.35;;;11.50;99.90;;;;;;5108007;28;20051;-68
2023/05/17 06:36:59;;;;;;;4.13;2.15;;;11.60;99.90;;;;;;5094925;28;20486;-68
2023/05/17 06:39:24;;;;;;;6.40;2.47;;;11.70;99.90;;;;;;5093503;28;20024;-69
2023/05/17 06:41:50;;;;;;;6.53;2.47;;;11.70;99.90;;;;;;5093410;28;20120;-67
2023/05/17 06:44:16;;;;;;;5.95;2.38;;;11.80;99.90;;;;;;5093499;28;20074;-69
2023/05/17 06:46:41;;;;;;;4.72;2.42;;;11.80;99.90;;;;;;5093807;28;20032;-68
2023/05/17 06:49:07;;;;;;;7.47;2.40;;;11.80;99.90;;;;;;5092238;28;20537;-67
2023/05/17 06:51:33;;;;;;;4.03;2.33;;;11.80;99.90;;;;;;5093372;28;20425;-67
2023/05/17 06:53:58;;;;;;;6.22;2.42;;;11.90;99.90;;;;;;5093387;28;20024;-68
2023/05/17 06:56:24;;;;;;;4.15;2.25;;;12.00;99.90;;;;;;5092891;28;20023;-67
2023/05/17 06:58:50;;;;;;;4.53;2.33;;;12.00;99.90;;;;;;5093633;28;20126;-68
2023/05/17 07:01:17;;;;;;;5.95;2.22;;;12.00;99.90;;;;;;5093371;28;20717;-68
2023/05/17 07:03:43;;;;;;;4.88;2.15;;;12.10;99.90;;;;;;5090420;28;20028;-68
2023/05/17 07:06:08;;;;;;;6.25;2.17;;;12.10;99.90;;;;;;5093141;28;20375;-68
2023/05/17 07:08:34;;;;;;;7.60;2.65;;;12.20;99.90;;;;;;5093015;28;20581;-67
2023/05/17 07:11:01;;;;;;;5.22;2.63;;;12.40;99.90;;;;;;5092770;28;20506;-68
2023/05/17 07:13:27;;;;;;;6.80;2.40;;;12.50;99.90;;;;;;5093193;28;20055;-69
2023/05/17 07:15:53;;;;;;;6.47;2.55;;;12.50;99.90;;;;;;5093485;28;20157;-69
2023/05/17 07:18:19;;;;;;;6.75;2.50;;;12.60;99.90;;;;;;5092941;28;20486;-68
2023/05/17 07:20:45;;;;;;;6.03;2.53;;;12.60;99.90;;;;;;5092272;28;20032;-69
2023/05/17 07:23:11;;;;;;;8.18;2.80;;;12.80;99.90;;;;;;5092823;28;20107;-68
2023/05/17 07:25:41;;;;;;;7.50;2.40;;;12.80;99.90;;;;;;5093038;28;20090;-69
2023/05/17 07:28:07;;;;;;;5.53;2.55;;;12.90;99.90;;;;;;5092302;28;20059;-69
2023/05/17 07:30:33;;;;;;;4.85;2.50;;;13.00;99.90;;;;;;5083188;28;20060;-69
2023/05/17 07:32:58;;;;;;;5.85;2.50;;;13.00;99.90;;;;;;5073042;28;20020;-69
2023/05/17 07:35:24;;;;;;;5.82;2.70;;;13.00;99.90;;;;;;5072711;28;20145;-68
2023/05/17 07:37:50;;;;;;;5.40;2.40;;;13.20;99.90;;;;;;5072923;28;20043;-68
2023/05/17 07:40:16;;;;;;;6.57;2.60;;;13.20;99.90;;;;;;5072426;28;20052;-69
2023/05/17 07:42:41;;;;;;;8.98;2.78;;;13.40;99.90;;;;;;5072879;28;20105;-67
2023/05/17 07:45:08;;;;;;;5.93;2.33;;;13.50;99.90;;;;;;5072709;28;20423;-70
2023/05/17 07:47:33;;;;;;;5.15;2.63;;;13.50;99.90;;;;;;5071686;28;20013;-71
2023/05/17 07:49:59;;;;;;;5.65;2.60;;;13.60;99.90;;;;;;5072811;28;20375;-70
2023/05/17 07:52:25;;;;;;;6.97;2.25;;;13.50;99.90;;;;;;5072504;28;20210;-72
2023/05/17 07:54:50;;;;;;;5.80;2.60;;;13.60;99.90;;;;;;5072551;28;20117;-71
2023/05/17 07:57:16;;;;;;;4.00;2.38;;;13.70;99.90;;;;;;5072435;28;20078;-70
2023/05/17 07:59:41;;;;;;;4.78;2.58;;;13.70;99.90;;;;;;5072340;28;20036;-70
2023/05/17 08:02:08;;;;;;;5.78;2.40;;;13.90;99.90;;;;;;5072499;28;20099;-71
2023/05/17 08:04:34;;;;;;;6.13;2.47;;;13.90;99.90;;;;;;5072632;28;20083;-71
2023/05/17 08:07:01;;;;;;;7.32;2.75;;;14.00;99.90;;;;;;5071966;28;20040;-71
2023/05/17 08:09:26;;;;;;;4.57;2.45;;;14.10;99.90;;;;;;5071930;28;20099;-72
2023/05/17 08:11:52;;;;;;;8.98;2.42;;;14.10;99.90;;;;;;5072146;28;20112;-71
2023/05/17 08:14:21;;;;;;;4.45;2.50;;;14.20;99.90;;;;;;5072082;28;20032;-71
2023/05/17 08:16:47;;;;;;;6.30;2.42;;;14.30;99.90;;;;;;5072062;28;20027;-71
2023/05/17 08:19:13;;;;;;;4.57;2.40;;;14.30;99.90;;;;;;5072008;28;20025;-71
2023/05/17 08:21:40;;;;;;;7.38;2.88;;;14.40;99.90;;;;;;5072087;28;20491;-71
2023/05/17 08:24:07;;;;;;;5.13;2.40;;;14.50;99.90;;;;;;5071807;28;20494;-71
2023/05/17 08:26:33;;;;;;;6.88;2.28;;;14.60;99.90;;;;;;5071933;28;20032;-71
2023/05/17 08:29:01;;;;;;;5.50;2.75;;;14.60;99.90;;;;;;5071886;28;20053;-71
2023/05/17 08:31:27;;;;;;;4.43;2.53;;;14.70;99.90;;;;;;5104380;28;20521;-71
2023/05/17 08:33:53;;;;;;;4.93;2.42;;;14.70;99.90;;;;;;5071815;28;20028;-71
2023/05/17 08:36:19;;;;;;;4.72;2.45;;;14.80;99.90;;;;;;5071678;28;20508;-71
2023/05/17 08:38:45;;;;;;;4.45;2.67;;;14.90;99.90;;;;;;5071388;28;20073;-71
2023/05/17 08:41:12;;;;;;;5.10;2.40;;;15.00;99.90;;;;;;5071935;28;20108;-71
2023/05/17 08:43:38;;;;;;;6.47;2.78;;;15.00;99.90;;;;;;5071584;28;20024;-71
2023/05/17 08:46:04;;;;;;;6.63;2.90;;;15.00;99.90;;;;;;5071621;28;20059;-71
2023/05/17 08:48:30;;;;;;;7.40;2.85;;;15.10;99.90;;;;;;5071597;28;20028;-71
2023/05/17 08:50:56;;;;;;;4.57;2.60;;;15.20;99.90;;;;;;5071559;28;20025;-71
2023/05/17 08:53:24;;;;;;;6.78;3.00;;;15.30;99.90;;;;;;5071731;28;20104;-69
2023/05/17 08:55:50;;;;;;;6.50;2.70;;;15.30;99.90;;;;;;5071572;28;20023;-70
2023/05/17 08:58:21;;;;;;;5.93;3.00;;;15.50;99.90;;;;;;5071229;28;20024;-71
2023/05/17 09:00:50;;;;;;;5.68;2.85;;;15.60;99.90;;;;;;5071521;28;20070;-71
2023/05/17 09:03:17;;;;;;;6.20;2.53;;;15.80;99.90;;;;;;5071701;28;20086;-71
2023/05/17 09:05:49;;;;;;;6.00;3.30;;;15.80;99.90;;;;;;5071169;28;20049;-71
2023/05/17 09:08:14;;;;;;;6.50;2.88;;;15.80;99.90;;;;;;5070854;28;20044;-71
2023/05/17 09:10:41;;;;;;;5.53;3.00;;;15.80;99.90;;;;;;5071817;28;20083;-70
2023/05/17 09:13:07;;;;;;;6.47;2.80;;;15.90;99.90;;;;;;5071334;28;20028;-70
2023/05/17 09:15:33;;;;;;;6.82;3.05;;;15.90;99.90;;;;;;5071270;28;20115;-71
2023/05/17 09:17:59;;;;;;;6.35;2.85;;;16.00;99.90;;;;;;5071642;28;20104;-71
2023/05/17 09:20:33;;;;;;;8.75;3.35;;;16.10;99.90;;;;;;5071228;28;20032;-71
2023/05/17 09:23:03;;;;;;;6.88;2.90;;;16.40;99.90;;;;;;5070809;28;20028;-70
2023/05/17 09:25:30;;;;;;;6.28;3.20;;;16.30;99.90;;;;;;5070987;28;20560;-71
2023/05/17 09:28:03;;;;;;;7.90;3.10;;;16.30;99.90;;;;;;5071226;28;20557;-70
2023/05/17 09:30:30;;;;;;;5.50;2.97;;;16.40;99.90;;;;;;5071081;28;20478;-71
2023/05/17 09:32:56;;;;;;;5.82;3.35;;;16.50;99.90;;;;;;5071106;28;20031;-70
2023/05/17 09:35:32;;;;;;;5.55;3.22;;;16.60;99.90;;;;;;5070413;28;20127;-70
2023/05/17 09:38:10;;;;;;;6.38;3.20;;;16.70;99.90;;;;;;5071065;28;20024;-68
2023/05/17 09:40:40;;;;;;;5.05;3.00;;;17.00;99.90;;;;;;5071348;28;20475;-68
2023/05/17 09:43:07;;;;;;;5.82;3.40;;;17.00;99.90;;;;;;5070739;28;20103;-68
2023/05/17 09:45:33;;;;;;;6.30;3.10;;;17.00;99.90;;;;;;5070827;28;20409;-69
2023/05/17 09:48:12;;;;;;;6.18;2.97;;;17.00;99.90;;;;;;5070937;28;20074;-68
2023/05/17 09:50:46;;;;;;;7.40;3.10;;;17.00;99.90;;;;;;5070728;28;20056;-69
2023/05/17 09:53:41;;;;;;;8.18;3.13;;;17.30;99.90;;;;;;5070942;28;20020;-69
2023/05/17 09:56:10;;;;;;;5.78;3.45;;;17.00;99.90;;;;;;5070134;28;20115;-69
2023/05/17 09:58:36;;;;;;;7.45;3.45;;;17.20;99.90;;;;;;5071077;28;20024;-67
2023/05/17 10:01:04;;;;;;;5.93;3.17;;;17.30;99.90;;;;;;5071166;28;20025;-69
2023/05/17 10:03:35;;;;;;;5.57;3.28;;;17.30;99.90;;;;;;5069318;28;20033;-68
2023/05/17 10:06:07;;;;;;;5.82;3.17;;;17.20;99.90;;;;;;5070023;28;20033;-69
2023/05/17 10:08:33;;;;;;;5.70;3.28;;;17.30;99.90;;;;;;5070971;28;20547;-68
2023/05/17 10:11:06;;;;;;;5.78;3.10;;;17.30;99.90;;;;;;5071884;28;20029;-67
2023/05/17 10:14:04;;;;;;;4.80;2.97;;;17.60;99.90;;;;;;5074353;28;20024;-69
2023/05/17 10:16:34;;;;;;;7.72;3.47;;;17.50;99.90;;;;;;5074277;28;20076;-69
2023/05/17 10:19:02;;;;;;;4.20;3.10;;;17.40;99.90;;;;;;5074066;28;20036;-68
2023/05/17 10:21:30;;;;;;;7.35;3.38;;;17.50;99.90;;;;;;5074367;28;20033;-69
2023/05/17 10:24:00;;;;;;;5.20;3.38;;;17.60;99.90;;;;;;5072989;28;20055;-69
2023/05/17 10:26:27;;;;;;;5.18;3.47;;;17.70;99.90;;;;;;5073592;28;20060;-69
2023/05/17 10:29:00;;;;;;;5.63;3.25;;;17.60;99.90;;;;;;5074131;28;20021;-69
2023/05/17 10:31:32;;;;;;;4.72;3.38;;;17.70;99.90;;;;;;5073989;28;20040;-69
2023/05/17 10:34:00;;;;;;;5.63;3.22;;;18.00;99.90;;;;;;5073683;28;20116;-69
2023/05/17 10:36:27;;;;;;;4.60;3.30;;;17.90;99.90;;;;;;5073997;28;20055;-69
2023/05/17 10:38:54;;;;;;;5.18;3.15;;;18.00;99.90;;;;;;5074316;28;20077;-70
2023/05/17 10:41:23;;;;;;;3.47;3.00;;;18.20;99.90;;;;;;5074004;28;20074;-69
2023/05/17 10:43:50;;;;;;;4.38;3.08;;;18.20;99.90;;;;;;5073945;28;20036;-69
2023/05/17 10:46:20;;;;;;;4.72;3.10;;;18.20;99.90;;;;;;5073942;28;20032;-69
2023/05/17 10:48:50;;;;;;;5.35;3.50;;;18.20;99.90;;;;;;5073449;28;20444;-70
2023/05/17 10:51:23;;;;;;;6.40;3.60;;;18.20;99.90;;;;;;5073758;28;20028;-68
2023/05/17 10:54:12;;;;;;;4.75;3.55;;;18.30;99.90;;;;;;5073736;28;20041;-69
2023/05/17 10:57:00;;;;;;;7.15;3.15;;;18.30;99.90;;;;;;5073648;28;20107;-69
2023/05/17 10:59:28;;;;;;;5.25;3.28;;;18.50;99.90;;;;;;5073601;28;20063;-69
2023/05/17 11:02:04;;;;;;;6.10;3.08;;;18.60;99.90;;;;;;5073557;28;20029;-67
2023/05/17 11:04:49;;;;;;;5.05;3.13;;;18.70;99.90;;;;;;5073699;28;20031;-68
2023/05/17 11:07:20;;;;;;;9.15;3.50;;;18.40;99.90;;;;;;5073310;28;20040;-71
2023/05/17 11:09:51;;;;;;;9.95;3.38;;;18.50;99.90;;;;;;5072862;28;20067;-70
2023/05/17 11:12:33;;;;;;;7.30;3.08;;;18.50;99.90;;;;;;5073198;28;20521;-69
2023/05/17 11:15:00;;;;;;;6.20;3.08;;;18.50;99.90;;;;;;5073192;28;20104;-70
2023/05/17 11:17:32;;;;;;;7.00;3.33;;;18.50;99.90;;;;;;5073246;28;20043;-71
2023/05/17 11:20:28;;;;;;;5.00;3.00;;;18.70;99.90;;;;;;5073258;28;20032;-70
2023/05/17 11:23:05;;;;;;;5.70;3.10;;;18.80;99.90;;;;;;5072738;28;20287;-70
2023/05/17 11:25:35;;;;;;;3.47;3.08;;;18.80;99.90;;;;;;5073007;28;20072;-70
2023/05/17 11:28:16;;;;;;;6.32;3.60;;;19.00;99.90;;;;;;5073187;28;20051;-67
2023/05/17 11:30:50;;;;;;;7.10;3.90;;;18.90;99.90;;;;;;5072963;28;20488;-69
2023/05/17 11:33:17;;;;;;;6.55;3.20;;;19.10;99.90;;;;;;5072635;28;20028;-69
2023/05/17 11:35:43;;;;;;;7.28;3.40;;;19.00;99.90;;;;;;5073095;28;20052;-69
2023/05/17 11:38:29;;;;;;;5.93;3.17;;;19.00;99.90;;;;;;5072964;28;20024;-69
2023/05/17 11:40:56;;;;;;;6.28;2.95;;;19.20;99.90;;;;;;5073019;28;20033;-70
2023/05/17 11:43:24;;;;;;;7.40;3.53;;;19.40;99.90;;;;;;5072652;28;20036;-70
2023/05/17 11:45:50;;;;;;;6.72;3.20;;;19.40;99.90;;;;;;5072302;28;20580;-70
2023/05/17 11:48:18;;;;;;;6.85;3.22;;;19.40;99.90;;;;;;5072694;28;20093;-69
2023/05/17 11:50:46;;;;;;;6.05;3.03;;;19.40;99.90;;;;;;5072696;28;20032;-70
2023/05/17 11:53:13;;;;;;;5.90;3.17;;;19.50;99.90;;;;;;5072635;28;20027;-70
2023/05/17 11:55:41;;;;;;;5.13;3.13;;;19.40;99.90;;;;;;5071298;28;20384;-69
2023/05/17 11:58:08;;;;;;;4.95;2.80;;;19.50;99.90;;;;;;5072487;28;20149;-69
2023/05/17 12:00:40;;;;;;;4.47;2.90;;;19.50;99.90;;;;;;5072157;28;20032;-70
2023/05/17 12:03:28;;;;;;;8.38;3.00;;;19.60;99.90;;;;;;5072376;28;20025;-69
2023/05/17 12:06:08;;;;;;;5.70;2.92;;;19.80;99.90;;;;;;5072229;28;20035;-68
2023/05/17 12:08:35;;;;;;;6.32;3.40;;;19.90;99.90;;;;;;5072464;28;20099;-70
2023/05/17 12:11:02;;;;;;;5.38;3.10;;;20.00;99.90;;;;;;5072241;28;20032;-69
2023/05/17 12:13:29;;;;;;;5.60;3.13;;;20.00;99.90;;;;;;5072502;28;20025;-70
2023/05/17 12:15:57;;;;;;;5.43;2.90;;;19.80;99.90;;;;;;5071870;28;20034;-69
2023/05/17 12:18:34;;;;;;;9.00;3.42;;;19.90;99.90;;;;;;5072086;28;20031;-70
2023/05/17 12:21:00;;;;;;;5.30;2.95;;;20.10;99.90;;;;;;5072361;28;20120;-69
2023/05/17 12:23:33;;;;;;;4.68;2.95;;;20.30;99.90;;;;;;5071970;28;20139;-69
2023/05/17 12:26:08;;;;;;;7.28;3.35;;;20.00;99.90;;;;;;5072046;28;20414;-69
2023/05/17 12:28:36;;;;;;;7.75;3.38;;;19.80;99.90;;;;;;5071891;28;20402;-69
2023/05/17 12:31:04;;;;;;;8.05;3.53;;;19.80;99.90;;;;;;5071446;28;20033;-69
2023/05/17 12:33:38;;;;;;;6.95;3.55;;;20.10;99.90;;;;;;5071249;28;20021;-69
2023/05/17 12:36:04;;;;;;;6.65;3.15;;;20.30;99.90;;;;;;5071536;28;20135;-70
2023/05/17 12:38:34;;;;;;;7.80;3.67;;;20.40;99.90;;;;;;5071683;28;20032;-69
2023/05/17 12:41:03;;;;;;;9.25;3.72;;;20.60;99.90;;;;;;5071585;28;20036;-69
2023/05/17 12:43:32;;;;;;;6.53;3.60;;;20.70;99.90;;;;;;5071568;28;20027;-69
2023/05/17 12:46:06;;;;;;;5.97;3.33;;;20.60;99.90;;;;;;5071582;28;20024;-68
2023/05/17 12:48:36;;;;;;;5.05;3.28;;;20.40;99.90;;;;;;5071623;28;20024;-69
2023/05/17 12:51:11;;;;;;;5.75;3.78;;;20.50;99.90;;;;;;5071567;28;20064;-69
2023/05/17 12:53:41;;;;;;;6.10;3.50;;;20.00;99.90;;;;;;5071593;28;20025;-69
2023/05/17 12:56:13;;;;;;;6.97;3.63;;;19.80;99.90;;;;;;5071421;28;20077;-69
2023/05/17 12:58:39;;;;;;;5.13;3.53;;;20.10;99.90;;;;;;5071235;28;20035;-69
2023/05/17 13:01:12;;;;;;;7.55;3.97;;;20.40;99.90;;;;;;5071411;28;20024;-68
2023/05/17 13:03:38;;;;;;;6.85;3.58;;;20.50;99.90;;;;;;5071323;28;20028;-69
2023/05/17 13:06:09;;;;;;;6.55;3.53;;;20.70;99.90;;;;;;5071206;28;20047;-69